Time;durP1;ratioP1;P1;durP2;ratioP2;P2;SDS_P1;SDS_P2;PMS_P1;PMS_P2;Temp;Humidity;BMP_temperature;BMP_pressure;BME280_temperature;BME280_humidity;BME280_pressure;Samples;Min_cycle;Max_cycle;Signal;HPM_P1;HPM_P2
2022/04/29 00:00:43;;;;;;;19.43;9.73;;;9.80;99.90;;;;;;5037613;28;20208;-73
2022/04/29 00:03:11;;;;;;;17.90;11.97;;;9.80;99.90;;;;;;5035559;28;20287;-69
2022/04/29 00:05:39;;;;;;;15.30;10.07;;;9.70;99.90;;;;;;5047226;28;20212;-69
2022/04/29 00:08:06;;;;;;;17.57;9.53;;;9.60;99.90;;;;;;5032458;28;20602;-69
2022/04/29 00:10:34;;;;;;;12.93;8.80;;;9.50;99.90;;;;;;5050096;28;20200;-70
2022/04/29 00:13:01;;;;;;;17.50;9.67;;;9.50;99.90;;;;;;5028952;28;20578;-71
2022/04/29 00:15:26;;;;;;;18.10;10.30;;;9.50;99.90;;;;;;5049968;28;20211;-70
2022/04/29 00:17:52;;;;;;;16.50;10.13;;;9.40;99.90;;;;;;5055568;28;20564;-74
2022/04/29 00:20:17;;;;;;;13.00;9.43;;;9.40;99.90;;;;;;5056063;28;20386;-71
2022/04/29 00:22:44;;;;;;;16.23;10.10;;;9.40;99.90;;;;;;5035118;28;20192;-70
2022/04/29 00:25:10;;;;;;;13.40;9.03;;;9.40;99.90;;;;;;5040739;28;20617;-71
2022/04/29 00:27:36;;;;;;;13.80;8.17;;;9.30;99.90;;;;;;5040420;28;20209;-72
2022/04/29 00:30:04;;;;;;;24.40;14.47;;;9.30;99.90;;;;;;5043830;28;20986;-69
2022/04/29 00:32:30;;;;;;;15.90;10.67;;;9.30;99.90;;;;;;5035248;28;20207;-75
2022/04/29 00:34:56;;;;;;;32.00;16.43;;;9.20;99.90;;;;;;5048563;28;20254;-74
2022/04/29 00:37:21;;;;;;;10.03;8.10;;;9.30;99.90;;;;;;5030906;28;20356;-74
2022/04/29 00:39:47;;;;;;;14.17;9.13;;;9.40;99.90;;;;;;5065878;28;20677;-73
2022/04/29 00:42:18;;;;;;;19.47;10.00;;;9.40;99.90;;;;;;5032173;28;20239;-73
2022/04/29 00:44:45;;;;;;;15.73;9.43;;;9.40;99.90;;;;;;5062794;28;20200;-73
2022/04/29 00:47:12;;;;;;;16.53;10.33;;;9.30;99.90;;;;;;5030710;28;20260;-75
2022/04/29 00:49:38;;;;;;;15.27;9.23;;;9.30;99.90;;;;;;5044582;28;20287;-72
2022/04/29 00:52:17;;;;;;;15.97;9.50;;;9.30;99.90;;;;;;5037937;28;20655;-73
2022/04/29 00:54:47;;;;;;;13.87;10.30;;;9.30;99.90;;;;;;5036954;28;20192;-66
2022/04/29 00:57:20;;;;;;;11.60;8.97;;;9.30;99.90;;;;;;5034891;28;20955;-73
2022/04/29 01:00:05;;;;;;;15.70;9.37;;;9.20;99.90;;;;;;5028791;28;20285;-73
2022/04/29 01:02:32;;;;;;;11.77;9.33;;;9.20;99.90;;;;;;5037918;28;20186;-72
2022/04/29 01:05:02;;;;;;;23.80;15.73;;;9.30;99.90;;;;;;5048671;28;20223;-70
2022/04/29 01:07:29;;;;;;;13.67;9.63;;;9.30;99.90;;;;;;5038753;28;20189;-69
2022/04/29 01:09:55;;;;;;;20.97;14.33;;;9.30;99.90;;;;;;5045205;28;20641;-69
2022/04/29 01:12:22;;;;;;;13.13;9.40;;;9.30;99.90;;;;;;5033143;28;20225;-69
2022/04/29 01:14:48;;;;;;;12.77;8.53;;;9.30;99.90;;;;;;5037403;28;20198;-71
2022/04/29 01:17:14;;;;;;;11.53;9.50;;;9.30;99.90;;;;;;5038309;28;20195;-72
2022/04/29 01:19:40;;;;;;;12.93;9.10;;;9.30;99.90;;;;;;5045686;28;20194;-73
2022/04/29 01:22:07;;;;;;;16.63;9.40;;;9.30;99.90;;;;;;5024718;28;20221;-73
2022/04/29 01:24:32;;;;;;;17.30;9.90;;;9.30;99.90;;;;;;5050116;28;20194;-72
2022/04/29 01:26:58;;;;;;;15.17;9.27;;;9.30;99.90;;;;;;5035312;28;20575;-71
2022/04/29 01:29:26;;;;;;;13.43;9.43;;;9.20;99.90;;;;;;5046709;28;20593;-72
2022/04/29 01:31:53;;;;;;;13.53;9.10;;;9.20;99.90;;;;;;5037005;28;20247;-74
2022/04/29 01:34:19;;;;;;;15.83;9.80;;;9.20;99.90;;;;;;5047972;28;20642;-72
2022/04/29 01:36:44;;;;;;;11.73;9.77;;;9.10;99.90;;;;;;5043201;28;20214;-73
2022/04/29 01:39:09;;;;;;;14.83;9.17;;;9.10;99.90;;;;;;5052493;28;20194;-72
2022/04/29 01:41:35;;;;;;;15.10;10.77;;;9.00;99.90;;;;;;5038366;28;20274;-73
2022/04/29 01:44:01;;;;;;;13.20;9.33;;;8.80;99.90;;;;;;5053039;28;20556;-73
2022/04/29 01:46:26;;;;;;;14.87;10.37;;;8.80;99.90;;;;;;5047107;28;20878;-73
2022/04/29 01:48:52;;;;;;;16.33;10.80;;;8.70;99.90;;;;;;5058893;28;20230;-73
2022/04/29 01:51:17;;;;;;;16.33;10.40;;;8.70;99.90;;;;;;5041212;28;20583;-74
2022/04/29 01:53:42;;;;;;;12.80;10.00;;;8.70;99.90;;;;;;5057242;28;20244;-74
2022/04/29 01:56:08;;;;;;;18.20;10.40;;;8.70;99.90;;;;;;5041780;28;20191;-73
2022/04/29 01:58:33;;;;;;;13.00;10.50;;;8.60;99.90;;;;;;5057467;28;20191;-74
2022/04/29 02:00:59;;;;;;;13.90;10.17;;;8.60;99.90;;;;;;5039714;28;20541;-74
2022/04/29 02:03:25;;;;;;;14.37;10.13;;;8.50;99.90;;;;;;5055019;28;20199;-74
2022/04/29 02:05:51;;;;;;;14.63;10.53;;;8.60;99.90;;;;;;5049674;28;20290;-74
2022/04/29 02:08:17;;;;;;;15.43;10.03;;;8.60;99.90;;;;;;5044652;28;20282;-74
2022/04/29 02:10:42;;;;;;;15.40;9.40;;;8.50;99.90;;;;;;5046255;28;20298;-73
2022/04/29 02:13:08;;;;;;;21.60;10.90;;;8.40;99.90;;;;;;5044676;28;20272;-71
2022/04/29 02:15:33;;;;;;;16.43;9.17;;;8.50;99.90;;;;;;5037702;28;20257;-71
2022/04/29 02:17:59;;;;;;;15.40;10.07;;;8.40;99.90;;;;;;5038965;28;20689;-73
2022/04/29 02:20:25;;;;;;;15.33;10.03;;;8.30;99.90;;;;;;5051109;28;20192;-73
2022/04/29 02:22:50;;;;;;;14.40;9.30;;;8.40;99.90;;;;;;5036856;28;20187;-71
2022/04/29 02:25:16;;;;;;;17.47;10.47;;;8.40;99.90;;;;;;5049923;28;20204;-72
2022/04/29 02:27:41;;;;;;;16.97;10.57;;;8.40;99.90;;;;;;5044468;28;20167;-72
2022/04/29 02:30:08;;;;;;;14.87;8.80;;;8.40;99.90;;;;;;5058418;28;20616;-72
2022/04/29 02:32:33;;;;;;;15.60;9.10;;;8.40;99.90;;;;;;5054242;28;20803;-71
2022/04/29 02:35:00;;;;;;;15.27;9.60;;;8.40;99.90;;;;;;5034903;28;20194;-73
2022/04/29 02:37:27;;;;;;;16.30;10.63;;;8.40;99.90;;;;;;5047463;28;20278;-71
2022/04/29 02:39:53;;;;;;;15.93;9.53;;;8.40;99.90;;;;;;5036283;28;20645;-73
2022/04/29 02:42:18;;;;;;;12.93;9.13;;;8.40;99.90;;;;;;5053936;28;20677;-72
2022/04/29 02:44:44;;;;;;;15.93;9.60;;;8.40;99.90;;;;;;5025839;28;20275;-72
2022/04/29 02:47:09;;;;;;;13.63;8.93;;;8.40;99.90;;;;;;5050281;28;20203;-72
2022/04/29 02:49:43;;;;;;;14.10;10.07;;;8.40;99.90;;;;;;5030960;28;20554;-72
2022/04/29 02:52:11;;;;;;;11.50;9.13;;;8.40;99.90;;;;;;5041360;28;20303;-72
2022/04/29 02:54:37;;;;;;;13.63;9.97;;;8.40;99.90;;;;;;5043591;28;20191;-73
2022/04/29 02:57:03;;;;;;;13.93;10.13;;;8.40;99.90;;;;;;5057040;28;20607;-73
2022/04/29 02:59:28;;;;;;;15.33;11.10;;;8.30;99.90;;;;;;5043387;28;20202;-70
2022/04/29 03:01:54;;;;;;;27.47;16.87;;;8.30;99.90;;;;;;5045438;28;20293;-71
2022/04/29 03:04:20;;;;;;;16.20;10.80;;;8.30;99.90;;;;;;5037103;28;20297;-71
2022/04/29 03:06:45;;;;;;;24.50;14.13;;;8.20;99.90;;;;;;5061664;28;20256;-72
2022/04/29 03:09:11;;;;;;;12.87;9.70;;;8.20;99.90;;;;;;5040791;28;20271;-73
2022/04/29 03:11:37;;;;;;;16.93;9.60;;;8.20;99.90;;;;;;5055996;28;20615;-72
2022/04/29 03:14:03;;;;;;;15.30;10.13;;;8.20;99.90;;;;;;5037870;28;20283;-72
2022/04/29 03:16:29;;;;;;;14.07;9.27;;;8.10;99.90;;;;;;5060539;28;20273;-72
2022/04/29 03:18:54;;;;;;;13.83;9.37;;;8.10;99.90;;;;;;5036746;28;20241;-72
2022/04/29 03:21:20;;;;;;;14.97;10.00;;;8.10;99.90;;;;;;5066763;28;20190;-71
2022/04/29 03:23:47;;;;;;;13.13;9.03;;;8.00;99.90;;;;;;5044076;28;20210;-72
2022/04/29 03:26:12;;;;;;;14.90;10.17;;;8.00;99.90;;;;;;5050570;28;20301;-73
2022/04/29 03:28:38;;;;;;;13.03;9.27;;;8.00;99.90;;;;;;5038984;28;20302;-72
2022/04/29 03:31:04;;;;;;;13.83;9.63;;;8.00;99.90;;;;;;5056456;28;20217;-72
2022/04/29 03:33:30;;;;;;;14.60;10.20;;;8.00;99.90;;;;;;5037999;28;20291;-73
2022/04/29 03:35:55;;;;;;;14.10;10.57;;;8.00;99.90;;;;;;5057162;28;20871;-72
2022/04/29 03:38:21;;;;;;;11.23;9.33;;;8.00;99.90;;;;;;5048454;28;20190;-73
2022/04/29 03:40:46;;;;;;;13.83;8.87;;;8.00;99.90;;;;;;5062038;28;20223;-73
2022/04/29 03:43:12;;;;;;;17.73;10.87;;;8.00;99.90;;;;;;5040257;28;20210;-72
2022/04/29 03:45:38;;;;;;;18.20;10.50;;;7.90;99.90;;;;;;5039875;28;20187;-72
2022/04/29 03:48:04;;;;;;;17.63;11.73;;;7.80;99.90;;;;;;5042397;28;20199;-74
2022/04/29 03:50:29;;;;;;;19.17;11.67;;;7.90;99.90;;;;;;5062550;28;20214;-74
2022/04/29 03:52:58;;;;;;;15.83;10.47;;;7.90;99.90;;;;;;5040396;28;20205;-68
2022/04/29 03:55:26;;;;;;;18.57;11.23;;;7.90;99.90;;;;;;5052340;28;20202;-71
2022/04/29 03:57:55;;;;;;;10.37;8.63;;;8.00;99.90;;;;;;5050719;28;20215;-63
2022/04/29 04:00:22;;;;;;;11.17;9.73;;;8.00;99.90;;;;;;5067061;28;20191;-72
2022/04/29 04:02:47;;;;;;;16.27;10.53;;;8.00;99.90;;;;;;5046167;28;20203;-72
2022/04/29 04:05:13;;;;;;;14.63;10.50;;;8.00;99.90;;;;;;5054518;28;20195;-71
2022/04/29 04:07:38;;;;;;;11.80;8.50;;;8.00;99.90;;;;;;5049277;28;20276;-71
2022/04/29 04:10:05;;;;;;;16.17;10.60;;;8.00;99.90;;;;;;5051125;28;20187;-71
2022/04/29 04:12:42;;;;;;;63.53;53.37;;;8.00;99.90;;;;;;5052627;28;20301;-69
2022/04/29 04:15:09;;;;;;;17.30;11.30;;;8.00;99.90;;;;;;5058714;28;20252;-70
2022/04/29 04:17:35;;;;;;;16.80;9.70;;;8.10;99.90;;;;;;5049212;28;20199;-70
2022/04/29 04:20:01;;;;;;;17.13;10.93;;;8.10;99.90;;;;;;5065402;28;20187;-69
2022/04/29 04:22:27;;;;;;;19.37;10.40;;;8.10;99.90;;;;;;5051276;28;20217;-69
2022/04/29 04:24:53;;;;;;;13.63;10.13;;;8.20;99.90;;;;;;5049677;28;20194;-69
2022/04/29 04:27:19;;;;;;;15.70;10.30;;;8.20;99.90;;;;;;5055413;28;20694;-70
2022/04/29 04:29:44;;;;;;;18.70;10.83;;;8.30;99.90;;;;;;5034912;28;20203;-69
2022/04/29 04:32:09;;;;;;;17.97;11.47;;;8.40;99.90;;;;;;5054354;28;20330;-70
2022/04/29 04:34:50;;;;;;;13.07;9.37;;;8.50;99.90;;;;;;5028630;28;20175;-69
2022/04/29 04:37:17;;;;;;;15.40;11.43;;;8.50;99.90;;;;;;5036427;28;20291;-70
2022/04/29 04:39:43;;;;;;;14.17;10.10;;;8.50;99.90;;;;;;5033706;28;20189;-70
2022/04/29 04:42:11;;;;;;;15.30;9.27;;;8.60;99.90;;;;;;5046665;28;20203;-70
2022/04/29 04:44:36;;;;;;;16.20;9.17;;;8.70;99.90;;;;;;5065661;28;20352;-68
2022/04/29 04:47:03;;;;;;;14.00;10.07;;;8.80;99.90;;;;;;5042077;28;20298;-68
2022/04/29 04:49:29;;;;;;;16.73;9.13;;;8.80;99.90;;;;;;5035801;28;20425;-69
2022/04/29 04:51:54;;;;;;;11.93;9.53;;;8.80;99.90;;;;;;5046863;28;20731;-70
2022/04/29 04:54:20;;;;;;;15.30;9.23;;;8.80;99.90;;;;;;5026005;28;20593;-70
2022/04/29 04:56:45;;;;;;;11.90;8.67;;;8.90;99.90;;;;;;5045752;28;20188;-70
2022/04/29 04:59:11;;;;;;;10.33;8.63;;;9.00;99.90;;;;;;5036962;28;20250;-69
2022/04/29 05:01:36;;;;;;;9.10;7.73;;;9.10;99.90;;;;;;5062314;28;20193;-69
2022/04/29 05:04:02;;;;;;;13.87;8.30;;;9.30;99.90;;;;;;5038226;28;20210;-72
2022/04/29 05:06:27;;;;;;;10.30;8.00;;;9.40;99.90;;;;;;5054578;28;20198;-72
2022/04/29 05:08:53;;;;;;;14.33;9.13;;;9.40;99.90;;;;;;5026609;28;20205;-72
2022/04/29 05:11:18;;;;;;;15.10;8.70;;;9.50;99.90;;;;;;5051478;28;20720;-72
2022/04/29 05:13:44;;;;;;;11.00;8.57;;;9.50;99.90;;;;;;5036399;28;20222;-72
2022/04/29 05:16:09;;;;;;;12.40;8.07;;;9.40;99.90;;;;;;5054707;28;20601;-71
2022/04/29 05:18:35;;;;;;;11.23;8.17;;;9.40;99.90;;;;;;5030063;28;20193;-72
2022/04/29 05:21:01;;;;;;;14.80;9.40;;;9.40;99.90;;;;;;5057945;28;20204;-72
2022/04/29 05:23:26;;;;;;;15.97;9.00;;;9.40;99.90;;;;;;5034456;28;20212;-72
2022/04/29 05:25:52;;;;;;;22.67;14.03;;;9.70;99.90;;;;;;5055410;28;20372;-72
2022/04/29 05:28:17;;;;;;;16.90;10.27;;;9.70;99.90;;;;;;5039726;28;20208;-72
2022/04/29 05:30:43;;;;;;;13.13;8.67;;;9.90;99.90;;;;;;5056506;28;20279;-70
2022/04/29 05:33:08;;;;;;;14.40;9.90;;;9.90;99.90;;;;;;5040608;28;20198;-70
2022/04/29 05:35:34;;;;;;;16.33;11.50;;;9.90;99.90;;;;;;5054118;28;20261;-69
2022/04/29 05:38:01;;;;;;;14.87;9.30;;;10.10;99.90;;;;;;5048470;28;20226;-70
2022/04/29 05:43:10;;;;;;;13.50;9.47;;;10.40;99.90;;;;;;5031324;28;20222;-70
2022/04/29 05:45:36;;;;;;;15.70;9.53;;;10.40;99.90;;;;;;5052758;28;20200;-70
2022/04/29 05:48:01;;;;;;;13.10;9.13;;;10.40;99.90;;;;;;5033971;28;20216;-70
2022/04/29 05:50:26;;;;;;;14.53;9.40;;;10.50;99.90;;;;;;5057465;28;20232;-69
2022/04/29 05:52:52;;;;;;;18.17;8.93;;;10.60;99.90;;;;;;5048982;28;20245;-70
2022/04/29 05:55:17;;;;;;;15.83;9.07;;;10.50;99.90;;;;;;5050770;28;20190;-70
2022/04/29 05:57:43;;;;;;;12.87;9.07;;;10.60;99.90;;;;;;5044593;28;20294;-70
2022/04/29 06:00:09;;;;;;;15.37;9.13;;;10.60;99.90;;;;;;5051823;28;20199;-70
2022/04/29 06:02:38;;;;;;;14.43;9.50;;;10.70;99.90;;;;;;5046786;28;20289;-72
2022/04/29 06:05:03;;;;;;;16.47;9.33;;;10.80;99.90;;;;;;5037596;28;20195;-70
2022/04/29 06:07:30;;;;;;;22.50;10.23;;;11.00;99.90;;;;;;5051764;28;20211;-70
2022/04/29 06:09:55;;;;;;;12.83;9.37;;;11.10;99.90;;;;;;5043749;28;20701;-70
2022/04/29 06:12:21;;;;;;;10.77;9.67;;;11.20;99.90;;;;;;5052815;28;20250;-70
2022/04/29 06:14:46;;;;;;;13.53;9.60;;;11.50;99.90;;;;;;5033492;28;20215;-69
2022/04/29 06:17:12;;;;;;;10.70;8.50;;;11.60;99.90;;;;;;5045779;28;20210;-68
2022/04/29 06:19:39;;;;;;;12.63;7.57;;;11.70;99.90;;;;;;5048228;28;20201;-69
2022/04/29 06:22:04;;;;;;;12.23;8.00;;;11.70;99.90;;;;;;5041302;28;20206;-64
2022/04/29 06:24:30;;;;;;;15.63;8.27;;;11.80;99.90;;;;;;5034258;28;20175;-69
2022/04/29 06:26:56;;;;;;;16.63;6.83;;;11.80;99.90;;;;;;5048590;28;20209;-69
2022/04/29 06:29:21;;;;;;;11.00;6.73;;;11.90;99.10;;;;;;5027941;28;20542;-69
2022/04/29 06:31:47;;;;;;;10.10;7.13;;;12.30;97.90;;;;;;5043983;28;20218;-69
2022/04/29 06:34:12;;;;;;;10.47;5.83;;;12.40;97.90;;;;;;5026614;28;20186;-70
2022/04/29 06:36:38;;;;;;;10.73;5.70;;;12.50;96.60;;;;;;5055592;28;20206;-69
2022/04/29 06:39:04;;;;;;;6.30;5.40;;;12.50;96.10;;;;;;5032114;28;20758;-70
2022/04/29 06:41:29;;;;;;;13.80;6.43;;;12.40;94.70;;;;;;5052515;28;20206;-70
2022/04/29 06:43:55;;;;;;;12.37;5.40;;;12.40;94.40;;;;;;5030639;28;20600;-70
2022/04/29 06:46:24;;;;;;;4.83;3.17;;;12.40;94.40;;;;;;5067105;28;20404;-70
2022/04/29 06:48:50;;;;;;;8.57;5.07;;;12.50;92.30;;;;;;5046124;28;20198;-70
2022/04/29 06:51:15;;;;;;;5.10;3.10;;;12.90;90.20;;;;;;5060378;28;20739;-70
2022/04/29 06:53:41;;;;;;;7.43;2.90;;;13.00;89.20;;;;;;5041126;28;20246;-70
2022/04/29 06:56:07;;;;;;;8.60;3.13;;;13.20;87.30;;;;;;5060473;28;20313;-70
2022/04/29 06:58:32;;;;;;;10.10;2.87;;;13.30;88.20;;;;;;5039986;28;20780;-70
2022/04/29 07:00:58;;;;;;;5.23;2.97;;;13.60;84.50;;;;;;5038686;28;20200;-70
2022/04/29 07:03:23;;;;;;;6.50;3.30;;;13.90;83.20;;;;;;5036493;28;20217;-69
2022/04/29 07:05:52;;;;;;;7.37;2.97;;;14.10;82.80;;;;;;5053562;28;20644;-70
2022/04/29 07:08:20;;;;;;;6.40;3.07;;;14.30;81.00;;;;;;5041164;28;20336;-70
2022/04/29 07:10:45;;;;;;;7.23;3.20;;;14.40;81.00;;;;;;5055512;28;20194;-70
2022/04/29 07:13:11;;;;;;;5.40;2.17;;;14.30;80.00;;;;;;5033294;28;20207;-70
2022/04/29 07:15:40;;;;;;;8.43;2.50;;;13.90;77.70;;;;;;5051420;28;20263;-70
2022/04/29 07:18:06;;;;;;;6.53;2.33;;;14.10;74.20;;;;;;5041110;28;20206;-70
2022/04/29 07:20:31;;;;;;;4.87;2.10;;;14.30;73.40;;;;;;5056804;28;20198;-69
2022/04/29 07:22:57;;;;;;;3.47;1.77;;;14.40;72.90;;;;;;5051091;28;20202;-70
2022/04/29 07:25:23;;;;;;;4.77;2.20;;;14.30;73.90;;;;;;5061732;28;20194;-69
2022/04/29 07:27:49;;;;;;;4.37;2.23;;;14.50;73.00;;;;;;5045992;28;20684;-69
2022/04/29 07:30:15;;;;;;;4.97;2.53;;;14.70;72.90;;;;;;5057137;28;20654;-70
2022/04/29 07:32:41;;;;;;;7.80;2.77;;;14.90;72.80;;;;;;5053505;28;20276;-69
2022/04/29 07:43:18;;;;;;;5.47;2.53;;;15.00;70.00;;;;;;5035814;28;20217;-69
2022/04/29 07:45:44;;;;;;;7.93;3.13;;;14.80;70.10;;;;;;5058242;28;20195;-69
2022/04/29 07:48:11;;;;;;;6.80;2.40;;;14.80;70.40;;;;;;5039523;28;20204;-69
2022/04/29 07:50:37;;;;;;;9.37;3.30;;;15.10;68.80;;;;;;5048584;28;20238;-71
2022/04/29 07:53:03;;;;;;;7.50;3.17;;;15.30;69.40;;;;;;5035510;28;20211;-72
2022/04/29 07:55:29;;;;;;;4.83;2.60;;;15.20;68.40;;;;;;5063638;28;20186;-70
2022/04/29 07:57:56;;;;;;;6.33;3.43;;;15.40;66.40;;;;;;5043752;28;20210;-70
2022/04/29 08:00:22;;;;;;;9.90;2.90;;;15.50;66.10;;;;;;5065505;28;20276;-70
2022/04/29 08:02:47;;;;;;;8.20;2.30;;;15.50;67.20;;;;;;5052084;28;20260;-71
2022/04/29 08:05:13;;;;;;;7.20;3.17;;;15.60;65.10;;;;;;5050522;28;20191;-71
2022/04/29 08:07:38;;;;;;;6.60;3.37;;;15.90;64.20;;;;;;5049034;28;20979;-69
2022/04/29 08:10:04;;;;;;;6.17;3.33;;;16.20;63.60;;;;;;5045228;28;20552;-70
2022/04/29 08:12:30;;;;;;;5.77;3.33;;;15.90;63.70;;;;;;5052861;28;20211;-70
2022/04/29 08:14:56;;;;;;;7.00;3.60;;;15.80;63.00;;;;;;5033619;28;20271;-71
2022/04/29 08:17:22;;;;;;;9.60;2.90;;;15.60;65.60;;;;;;5043241;28;20191;-70
2022/04/29 08:19:48;;;;;;;6.90;2.80;;;15.50;64.20;;;;;;5034493;28;20187;-70
2022/04/29 08:22:18;;;;;;;7.57;3.10;;;15.50;64.60;;;;;;5053846;28;20202;-70
2022/04/29 08:24:44;;;;;;;3.00;2.40;;;16.00;62.70;;;;;;5041539;28;20809;-70
2022/04/29 08:27:10;;;;;;;4.17;2.43;;;15.90;62.00;;;;;;5039627;28;20207;-70
2022/04/29 08:29:39;;;;;;;6.60;2.67;;;15.80;63.40;;;;;;5040999;28;20348;-71
2022/04/29 08:32:06;;;;;;;7.97;2.73;;;15.90;64.10;;;;;;5041898;28;20230;-70
2022/04/29 08:34:33;;;;;;;10.57;3.77;;;16.10;63.70;;;;;;5035708;28;20191;-70
2022/04/29 08:37:02;;;;;;;6.57;3.20;;;16.20;62.40;;;;;;5046745;28;20192;-71
2022/04/29 08:39:28;;;;;;;6.03;3.50;;;16.30;62.50;;;;;;5035304;28;20703;-71
2022/04/29 08:41:55;;;;;;;6.47;3.30;;;16.30;60.90;;;;;;5053930;28;20194;-70
2022/04/29 08:44:21;;;;;;;7.53;3.87;;;16.40;61.70;;;;;;5034977;28;20278;-70
2022/04/29 08:46:47;;;;;;;7.93;3.87;;;16.60;62.90;;;;;;5055642;28;20290;-70
2022/04/29 08:49:15;;;;;;;7.50;3.47;;;16.40;62.20;;;;;;5036564;28;20517;-70
2022/04/29 08:51:40;;;;;;;8.37;4.13;;;16.30;61.30;;;;;;5045633;28;20234;-69
2022/04/29 08:54:06;;;;;;;8.43;4.03;;;16.40;62.40;;;;;;5031859;28;20217;-70
2022/04/29 08:59:19;;;;;;;9.77;4.00;;;16.40;63.30;;;;;;5028169;28;20684;-70
2022/04/29 09:01:44;;;;;;;6.53;3.47;;;16.20;63.40;;;;;;5037628;28;20188;-70
2022/04/29 09:04:11;;;;;;;10.53;4.73;;;16.30;61.80;;;;;;5050230;28;20202;-71
2022/04/29 09:06:49;;;;;;;8.90;3.50;;;16.40;63.90;;;;;;5036179;28;20183;-62
2022/04/29 09:09:21;;;;;;;5.60;3.30;;;16.40;61.40;;;;;;5047003;28;20203;-70
2022/04/29 09:11:46;;;;;;;10.47;3.73;;;16.50;60.20;;;;;;5028967;28;20703;-70
2022/04/29 09:14:23;;;;;;;3.70;3.33;;;16.60;60.60;;;;;;5051521;28;20196;-70
2022/04/29 09:16:49;;;;;;;3.07;2.63;;;16.70;61.40;;;;;;5049599;28;20680;-70
2022/04/29 09:19:35;;;;;;;8.80;4.17;;;16.90;61.40;;;;;;5046592;28;20214;-72
2022/04/29 09:22:09;;;;;;;6.67;4.10;;;16.80;62.30;;;;;;5050520;28;20274;-73
2022/04/29 09:24:35;;;;;;;4.60;3.87;;;17.00;62.30;;;;;;5042122;28;20211;-70
2022/04/29 09:27:03;;;;;;;8.10;4.60;;;17.10;61.50;;;;;;5054786;28;20297;-72
2022/04/29 09:29:29;;;;;;;9.03;4.57;;;17.30;62.90;;;;;;5049258;28;20795;-73
2022/04/29 09:31:56;;;;;;;5.40;4.10;;;17.60;62.50;;;;;;5041349;28;20691;-70
2022/04/29 09:34:23;;;;;;;6.97;4.00;;;17.50;61.10;;;;;;5040484;28;20208;-70
2022/04/29 09:36:50;;;;;;;6.43;4.60;;;17.60;62.00;;;;;;5051577;28;20187;-71
2022/04/29 09:39:30;;;;;;;8.67;4.80;;;17.30;62.40;;;;;;5045834;28;20227;-71
2022/04/29 09:42:00;;;;;;;4.70;3.97;;;17.20;62.30;;;;;;5041664;28;20191;-71
2022/04/29 09:44:27;;;;;;;10.40;4.27;;;17.10;63.70;;;;;;5043522;28;20204;-71
2022/04/29 09:46:53;;;;;;;6.20;4.30;;;17.30;62.60;;;;;;5046447;28;20978;-69
2022/04/29 09:49:19;;;;;;;6.27;3.80;;;17.40;61.50;;;;;;5045202;28;20274;-70
2022/04/29 09:51:47;;;;;;;7.33;4.33;;;17.30;62.40;;;;;;5063069;28;20262;-70
2022/04/29 09:54:18;;;;;;;8.90;4.03;;;17.30;61.80;;;;;;5045888;28;20239;-70
2022/04/29 09:56:45;;;;;;;5.23;4.37;;;17.30;62.20;;;;;;5047837;28;20191;-71
2022/04/29 09:59:11;;;;;;;7.23;4.33;;;17.10;62.00;;;;;;5041038;28;20203;-70
2022/04/29 10:01:37;;;;;;;5.97;4.17;;;17.10;60.70;;;;;;5048731;28;20199;-71
2022/04/29 10:04:03;;;;;;;4.30;3.90;;;17.30;61.20;;;;;;5037234;28;20230;-70
2022/04/29 10:06:31;;;;;;;9.73;5.10;;;17.40;61.30;;;;;;5041038;28;20294;-72
2022/04/29 10:08:58;;;;;;;8.73;4.13;;;17.50;61.60;;;;;;5054056;28;20618;-70
2022/04/29 10:11:26;;;;;;;8.93;4.87;;;17.50;61.90;;;;;;5042055;28;20243;-70
2022/04/29 10:13:52;;;;;;;8.13;4.20;;;17.50;62.30;;;;;;5044993;28;20278;-71
2022/04/29 10:16:18;;;;;;;13.47;4.53;;;17.30;63.00;;;;;;5044557;28;20178;-71
2022/04/29 10:21:46;;;;;;;8.83;4.40;;;17.50;60.00;;;;;;5048935;28;20185;-71
2022/04/29 10:24:12;;;;;;;9.57;4.87;;;17.40;60.40;;;;;;5054544;28;20199;-71
2022/04/29 10:26:38;;;;;;;8.20;4.53;;;17.20;60.50;;;;;;5052520;28;20214;-71
2022/04/29 10:29:04;;;;;;;10.00;5.10;;;16.90;60.70;;;;;;5040399;28;20209;-69
2022/04/29 10:31:30;;;;;;;7.87;5.67;;;16.90;61.40;;;;;;5044801;28;20242;-70
2022/04/29 10:34:31;;;;;;;11.27;5.03;;;16.80;60.60;;;;;;5054234;28;20277;-69
2022/04/29 10:36:58;;;;;;;11.67;5.47;;;16.80;60.90;;;;;;5033442;28;20644;-70
2022/04/29 10:39:24;;;;;;;9.00;5.63;;;17.10;64.70;;;;;;5047250;28;20207;-71
2022/04/29 10:41:58;;;;;;;5.97;4.97;;;17.50;60.90;;;;;;5059011;28;20281;-70
2022/04/29 10:44:24;;;;;;;6.17;4.13;;;17.60;62.70;;;;;;5037219;28;20209;-72
2022/04/29 10:46:49;;;;;;;7.23;4.97;;;17.80;62.10;;;;;;5057810;28;20205;-70
2022/04/29 10:49:26;;;;;;;5.63;4.23;;;18.10;59.00;;;;;;5046589;28;20222;-71
2022/04/29 10:52:00;;;;;;;11.87;4.77;;;17.90;58.50;;;;;;5054021;28;20234;-70
2022/04/29 10:54:35;;;;;;;7.17;4.07;;;18.30;59.10;;;;;;5043227;28;20213;-69
2022/04/29 10:57:02;;;;;;;12.57;4.43;;;18.60;57.30;;;;;;5047230;28;20186;-70
2022/04/29 10:59:47;;;;;;;5.77;5.10;;;18.90;56.40;;;;;;5049842;28;20213;-72
2022/04/29 11:02:23;;;;;;;6.13;4.90;;;19.30;55.50;;;;;;5027648;28;20200;-71
2022/04/29 11:04:48;;;;;;;7.17;5.10;;;19.60;55.60;;;;;;5035203;28;20215;-70
2022/04/29 11:07:33;;;;;;;7.30;4.57;;;19.50;54.30;;;;;;5058671;28;20203;-72
2022/04/29 11:09:59;;;;;;;6.07;4.33;;;19.90;54.20;;;;;;5042403;28;20743;-66
2022/04/29 11:12:35;;;;;;;7.30;4.77;;;20.30;54.80;;;;;;5054343;28;20329;-64
2022/04/29 11:15:18;;;;;;;10.83;4.37;;;20.40;54.00;;;;;;5042255;28;20229;-64
2022/04/29 11:17:44;;;;;;;6.20;4.70;;;20.60;52.10;;;;;;5043238;28;20229;-64
2022/04/29 11:20:20;;;;;;;6.33;4.30;;;20.60;52.50;;;;;;5036033;28;20286;-63
2022/04/29 11:25:58;;;;;;;6.47;4.20;;;20.60;52.70;;;;;;5039521;28;20256;-65
2022/04/29 11:28:25;;;;;;;7.00;4.07;;;20.90;52.40;;;;;;5041815;28;20203;-65
2022/04/29 11:30:59;;;;;;;6.13;4.47;;;21.10;51.00;;;;;;5038926;28;20630;-65
2022/04/29 11:33:25;;;;;;;7.70;4.50;;;21.50;49.80;;;;;;5038748;28;20183;-65
2022/04/29 11:36:02;;;;;;;9.52;5.53;;;21.90;52.80;;;;;;5039008;28;20542;-65
2022/04/29 11:38:32;;;;;;;6.38;4.50;;;21.40;49.00;;;;;;5045287;28;20202;-64
2022/04/29 11:41:00;;;;;;;4.85;4.45;;;21.00;48.60;;;;;;5040761;28;20274;-66
2022/04/29 11:43:26;;;;;;;8.48;5.88;;;20.90;50.50;;;;;;5052164;28;20642;-65
2022/04/29 11:46:00;;;;;;;5.57;4.55;;;21.20;50.60;;;;;;5027768;28;20243;-64
2022/04/29 11:48:26;;;;;;;5.47;4.35;;;20.70;48.30;;;;;;5045961;28;20235;-68
2022/04/29 11:50:55;;;;;;;9.52;5.15;;;21.40;48.40;;;;;;5046186;28;20253;-66
2022/04/29 11:53:20;;;;;;;9.05;4.68;;;21.60;48.50;;;;;;5060779;28;20721;-66
2022/04/29 11:55:50;;;;;;;5.05;4.50;;;21.90;48.30;;;;;;5038880;28;20180;-65
2022/04/29 11:58:19;;;;;;;6.60;5.05;;;22.50;49.60;;;;;;5066599;28;20193;-68
2022/04/29 12:00:49;;;;;;;6.28;4.45;;;22.40;46.60;;;;;;5034217;28;20653;-67
2022/04/29 12:03:19;;;;;;;8.45;4.10;;;22.50;47.20;;;;;;5050941;28;20249;-65
2022/04/29 12:05:45;;;;;;;6.95;4.30;;;22.50;46.20;;;;;;5037164;28;20277;-64
2022/04/29 12:08:10;;;;;;;6.53;3.65;;;22.90;46.90;;;;;;5037859;28;20761;-64
2022/04/29 12:10:36;;;;;;;6.40;4.50;;;23.50;46.90;;;;;;5035906;28;20209;-64
2022/04/29 12:13:03;;;;;;;6.28;4.18;;;24.10;44.50;;;;;;5030150;28;20246;-64
2022/04/29 12:15:31;;;;;;;4.45;3.92;;;24.70;43.20;;;;;;5036173;28;20234;-65
2022/04/29 12:17:58;;;;;;;7.68;4.65;;;24.70;42.10;;;;;;5047767;28;20230;-67
2022/04/29 12:20:25;;;;;;;6.93;4.53;;;24.90;41.50;;;;;;5037946;28;20206;-66
2022/04/29 12:22:52;;;;;;;5.45;4.63;;;25.20;44.10;;;;;;5052768;28;20526;-67
2022/04/29 12:25:25;;;;;;;9.60;5.10;;;25.70;41.60;;;;;;5038400;28;20298;-67
2022/04/29 12:28:13;;;;;;;7.57;4.43;;;25.70;41.80;;;;;;5046407;28;20425;-66
2022/04/29 12:36:11;;;;;;;7.57;4.20;;;25.90;37.90;;;;;;5051534;28;20241;-65
2022/04/29 12:38:39;;;;;;;6.53;4.05;;;26.00;41.20;;;;;;5033928;28;20634;-66
2022/04/29 12:41:23;;;;;;;6.93;4.45;;;25.30;37.80;;;;;;5065954;28;20282;-66
2022/04/29 12:43:51;;;;;;;8.88;4.22;;;24.90;38.40;;;;;;5025274;28;20230;-66
2022/04/29 12:46:18;;;;;;;6.28;4.18;;;25.40;39.00;;;;;;5061408;28;20198;-66
2022/04/29 12:48:53;;;;;;;4.57;4.03;;;25.50;39.10;;;;;;5035194;28;20727;-66
2022/04/29 12:51:26;;;;;;;11.43;4.85;;;24.90;39.80;;;;;;5045746;28;20228;-66
2022/04/29 12:53:55;;;;;;;6.22;3.92;;;24.30;40.50;;;;;;5043158;28;20593;-67
2022/04/29 12:56:32;;;;;;;7.30;3.97;;;24.50;41.30;;;;;;5056345;28;20187;-66
2022/04/29 12:59:01;;;;;;;5.63;4.53;;;24.90;40.20;;;;;;5024003;28;20286;-68
2022/04/29 13:01:35;;;;;;;7.22;4.05;;;25.00;39.80;;;;;;5051478;28;20195;-67
2022/04/29 13:04:01;;;;;;;8.38;4.22;;;24.90;39.70;;;;;;5032043;28;20976;-67
2022/04/29 13:06:28;;;;;;;4.13;3.72;;;25.20;41.20;;;;;;5051383;28;20199;-66
2022/04/29 13:08:55;;;;;;;5.00;3.42;;;25.70;38.90;;;;;;5036032;28;20194;-68